createdAt,value
2022-10-22T00:00:47.716Z,13.52
2022-10-22T00:04:52.202Z,13.58
2022-10-22T00:08:55.912Z,13.60
2022-10-22T00:12:59.609Z,13.58
2022-10-22T00:17:05.852Z,13.65
2022-10-22T00:21:13.974Z,13.66
2022-10-22T00:25:17.711Z,13.67
2022-10-22T00:29:21.602Z,13.69
2022-10-22T00:33:26.468Z,13.70
2022-10-22T00:37:30.898Z,13.68
2022-10-22T00:41:34.325Z,13.71
2022-10-22T00:45:37.353Z,13.71
2022-10-22T00:49:46.339Z,13.74
2022-10-22T00:53:53.712Z,13.75
2022-10-22T00:57:58.653Z,13.67
2022-10-22T01:06:16.631Z,13.73
2022-10-22T01:10:34.410Z,13.71
2022-10-22T01:14:47.838Z,13.69
2022-10-22T01:19:00.561Z,13.66
2022-10-22T01:23:18.914Z,13.65
2022-10-22T01:27:32.342Z,13.62
2022-10-22T01:31:45.013Z,13.62
2022-10-22T01:35:48.471Z,13.60
2022-10-22T01:39:53.718Z,13.55
2022-10-22T01:43:56.935Z,13.49
2022-10-22T01:48:10.954Z,13.44
2022-10-22T01:52:25.828Z,13.36
2022-10-22T01:56:54.550Z,13.27
2022-10-22T02:01:04.403Z,13.20
2022-10-22T02:05:14.446Z,13.10
2022-10-22T02:09:21.615Z,13.04
2022-10-22T02:13:29.094Z,12.98
2022-10-22T02:17:35.747Z,12.96
2022-10-22T02:21:41.157Z,12.98
2022-10-22T02:25:51.023Z,13.01
2022-10-22T02:30:00.594Z,13.05
2022-10-22T02:34:10.720Z,13.10
2022-10-22T02:38:16.143Z,13.11
2022-10-22T02:42:19.847Z,13.16
2022-10-22T02:46:24.422Z,13.19
2022-10-22T02:50:27.883Z,13.19
2022-10-22T02:54:32.345Z,13.16
2022-10-22T02:58:35.682Z,13.07
2022-10-22T03:02:39.239Z,12.96
2022-10-22T03:06:44.912Z,12.84
2022-10-22T03:10:49.249Z,12.74
2022-10-22T03:14:52.947Z,12.67
2022-10-22T03:18:56.440Z,12.60
2022-10-22T03:23:00.161Z,12.58
2022-10-22T03:27:05.222Z,12.58
2022-10-22T03:31:08.193Z,12.59
2022-10-22T03:35:11.630Z,12.60
2022-10-22T03:39:16.447Z,12.65
2022-10-22T03:43:21.279Z,12.68
2022-10-22T03:47:25.051Z,12.70
2022-10-22T03:51:28.937Z,12.70
2022-10-22T03:55:31.965Z,12.72
2022-10-22T03:59:38.035Z,12.72
2022-10-22T04:03:42.007Z,12.70
2022-10-22T04:07:45.105Z,12.70
2022-10-22T04:11:48.502Z,12.71
2022-10-22T04:15:53.695Z,12.72
2022-10-22T04:19:57.158Z,12.71
2022-10-22T04:24:00.771Z,12.71
2022-10-22T04:28:03.828Z,12.71
2022-10-22T04:32:08.707Z,12.72
2022-10-22T04:36:15.036Z,12.75
2022-10-22T04:40:18.545Z,12.78
2022-10-22T04:44:21.686Z,12.81
2022-10-22T04:48:26.542Z,12.84
2022-10-22T04:52:29.939Z,12.91
2022-10-22T04:56:34.211Z,12.96
2022-10-22T05:00:37.636Z,13.03
2022-10-22T05:04:42.582Z,13.10
2022-10-22T05:08:45.663Z,13.17
2022-10-22T05:12:49.180Z,13.23
2022-10-22T05:16:53.821Z,13.31
2022-10-22T05:20:58.651Z,13.38
2022-10-22T05:25:02.169Z,13.41
2022-10-22T05:29:05.219Z,13.47
2022-10-22T05:33:08.746Z,13.50
2022-10-22T05:37:13.599Z,13.56
2022-10-22T05:41:19.006Z,13.61
2022-10-22T05:45:22.686Z,13.67
2022-10-22T05:49:25.988Z,13.72
2022-10-22T05:53:30.883Z,13.82
2022-10-22T05:57:34.332Z,13.89
2022-10-22T06:01:37.927Z,13.95
2022-10-22T06:05:41.394Z,14.01
2022-10-22T06:09:47.788Z,14.04
2022-10-22T06:13:52.567Z,14.05
2022-10-22T06:17:56.046Z,14.03
2022-10-22T06:21:59.453Z,14.05
2022-10-22T06:26:05.237Z,14.03
2022-10-22T06:30:09.730Z,14.07
2022-10-22T06:34:15.489Z,14.18
2022-10-22T06:38:18.988Z,14.26
2022-10-22T06:42:23.890Z,14.37
2022-10-22T06:46:27.649Z,14.53
2022-10-22T06:50:31.317Z,14.67
2022-10-22T06:54:34.997Z,14.84
2022-10-22T06:58:39.807Z,14.98
2022-10-22T07:02:43.221Z,15.13
2022-10-22T07:06:46.577Z,15.27
2022-10-22T07:10:50.132Z,15.39
2022-10-22T07:14:54.628Z,15.52
2022-10-22T07:18:58.129Z,15.55
2022-10-22T07:23:02.197Z,15.72
2022-10-22T07:27:09.400Z,15.80
2022-10-22T07:31:17.364Z,15.89
2022-10-22T07:35:20.768Z,15.96
2022-10-22T07:39:26.332Z,15.99
2022-10-22T07:43:29.875Z,16.01
2022-10-22T07:47:34.751Z,16.05
2022-10-22T07:51:37.785Z,16.09
2022-10-22T07:55:41.265Z,16.17
2022-10-22T07:59:44.784Z,16.23
2022-10-22T08:03:49.678Z,16.30
2022-10-22T08:07:53.441Z,16.35
2022-10-22T08:11:56.702Z,16.39
2022-10-22T08:16:01.278Z,16.43
2022-10-22T08:20:06.500Z,16.50
2022-10-22T08:24:09.737Z,16.54
2022-10-22T08:28:12.821Z,16.58
2022-10-22T08:32:16.287Z,16.59
2022-10-22T08:36:21.067Z,16.62
2022-10-22T08:40:35.150Z,16.68
2022-10-22T08:44:54.672Z,16.76
2022-10-22T08:49:00.495Z,16.84
2022-10-22T08:53:09.698Z,16.95
2022-10-22T08:57:25.670Z,17.08
2022-10-22T09:01:35.736Z,17.25
2022-10-22T09:05:48.218Z,17.39
2022-10-22T09:09:55.743Z,17.51
2022-10-22T09:14:01.104Z,17.58
2022-10-22T09:18:19.169Z,17.64
2022-10-22T09:26:42.929Z,17.62
2022-10-22T09:30:46.804Z,17.58
2022-10-22T09:34:51.532Z,17.53
2022-10-22T09:38:54.753Z,17.51
2022-10-22T09:42:59.670Z,17.51
2022-10-22T09:47:06.075Z,17.50
2022-10-22T09:51:17.929Z,17.50
2022-10-22T09:55:21.419Z,17.46
2022-10-22T09:59:34.808Z,17.50
2022-10-22T10:03:37.797Z,17.49
2022-10-22T10:07:41.191Z,17.49
2022-10-22T10:11:50.138Z,17.52
2022-10-22T10:16:00.098Z,17.56
2022-10-22T10:20:18.605Z,17.62
2022-10-22T10:24:32.625Z,17.73
2022-10-22T10:28:52.616Z,17.84
2022-10-22T10:33:18.035Z,17.95
2022-10-22T10:37:25.338Z,18.04
2022-10-22T10:41:41.838Z,18.08
2022-10-22T10:45:55.850Z,18.11
2022-10-22T10:50:19.029Z,18.15
2022-10-22T10:54:33.342Z,18.19
2022-10-22T10:58:47.589Z,18.19
2022-10-22T11:03:27.801Z,18.19
2022-10-22T11:07:40.535Z,18.22
2022-10-22T11:11:49.046Z,18.24
2022-10-22T11:15:59.516Z,18.28
2022-10-22T11:20:07.961Z,18.34
2022-10-22T11:24:21.953Z,18.39
2022-10-22T11:28:30.092Z,18.40
2022-10-22T11:32:34.978Z,18.39
2022-10-22T11:36:39.154Z,18.38
2022-10-22T11:40:49.506Z,18.35
2022-10-22T11:45:03.534Z,18.32
2022-10-22T11:49:19.422Z,18.30
2022-10-22T11:53:33.013Z,18.18
2022-10-22T11:57:40.805Z,18.20
2022-10-22T12:01:44.429Z,18.17
2022-10-22T12:05:48.601Z,18.13
2022-10-22T12:09:54.156Z,18.16
2022-10-22T12:14:16.387Z,18.21
2022-10-22T12:18:19.678Z,18.29
2022-10-22T12:22:25.675Z,18.41
2022-10-22T12:30:42.066Z,18.64
2022-10-22T12:38:53.392Z,18.88
2022-10-22T12:42:58.547Z,18.99
2022-10-22T12:47:03.783Z,19.08
2022-10-22T12:51:09.641Z,19.14
2022-10-22T12:55:18.299Z,19.19
2022-10-22T12:59:24.077Z,19.21
2022-10-22T13:03:32.310Z,19.28
2022-10-22T13:07:41.045Z,19.38
2022-10-22T13:11:52.145Z,19.42
2022-10-22T13:15:57.445Z,19.45
2022-10-22T13:20:14.618Z,19.50
2022-10-22T13:24:23.200Z,19.54
2022-10-22T13:28:27.208Z,19.61
2022-10-22T13:32:33.020Z,19.65
2022-10-22T13:36:38.328Z,19.70
2022-10-22T13:40:41.323Z,19.76
2022-10-22T13:44:44.823Z,19.80
2022-10-22T13:48:49.937Z,19.84
2022-10-22T13:52:56.697Z,19.86
2022-10-22T13:56:59.990Z,19.84
2022-10-22T14:01:09.362Z,19.84
2022-10-22T14:05:12.712Z,19.84
2022-10-22T14:09:18.051Z,19.83
2022-10-22T14:13:22.600Z,19.83
2022-10-22T14:17:26.213Z,19.82
2022-10-22T14:21:31.825Z,19.84
2022-10-22T14:25:37.067Z,19.85
2022-10-22T14:29:40.529Z,19.86
2022-10-22T14:33:43.546Z,19.86
2022-10-22T14:37:46.977Z,19.89
2022-10-22T14:41:51.489Z,19.94
2022-10-22T14:45:56.848Z,20.01
2022-10-22T14:50:02.011Z,20.13
2022-10-22T14:54:05.773Z,20.33
2022-10-22T14:58:10.396Z,20.57
2022-10-22T15:02:15.332Z,20.79
2022-10-22T15:06:18.326Z,20.94
2022-10-22T15:10:22.063Z,20.91
2022-10-22T15:14:26.633Z,20.82
2022-10-22T15:18:30.879Z,20.75
2022-10-22T15:22:35.973Z,20.72
2022-10-22T15:26:39.400Z,20.67
2022-10-22T15:30:44.028Z,20.62
2022-10-22T15:34:47.518Z,20.53
2022-10-22T15:38:50.770Z,20.40
2022-10-22T15:47:18.886Z,19.91
2022-10-22T15:51:22.797Z,19.61
2022-10-22T15:55:26.171Z,19.30
2022-10-22T15:59:29.804Z,19.01
2022-10-22T16:03:35.231Z,18.73
2022-10-22T16:07:38.667Z,18.49
2022-10-22T16:11:43.106Z,18.27
2022-10-22T16:15:46.469Z,18.09
2022-10-22T16:19:51.242Z,17.93
2022-10-22T16:23:54.439Z,17.77
2022-10-22T16:27:57.836Z,17.60
2022-10-22T16:32:01.224Z,17.44
2022-10-22T16:36:06.584Z,17.26
2022-10-22T16:40:11.722Z,17.08
2022-10-22T16:44:15.446Z,16.88
2022-10-22T16:48:20.056Z,16.74
2022-10-22T16:52:25.229Z,16.62
2022-10-22T16:56:28.258Z,16.51
2022-10-22T17:00:31.530Z,16.41
2022-10-22T17:04:36.488Z,16.30
2022-10-22T17:08:42.588Z,16.23
2022-10-22T17:12:46.049Z,16.15
2022-10-22T17:16:54.221Z,16.11
2022-10-22T17:21:00.087Z,16.03
2022-10-22T17:25:15.974Z,15.97
2022-10-22T17:29:21.391Z,15.91
2022-10-22T17:33:24.603Z,15.88
2022-10-22T17:37:28.078Z,15.86
2022-10-22T17:41:34.986Z,15.87
2022-10-22T17:45:38.000Z,15.86
2022-10-22T17:49:41.474Z,15.86
2022-10-22T17:53:46.332Z,15.88
2022-10-22T17:57:50.846Z,15.89
2022-10-22T18:01:56.936Z,15.92
2022-10-22T18:06:07.884Z,15.97
2022-10-22T18:10:12.311Z,16.02
2022-10-22T18:14:17.885Z,16.10
2022-10-22T18:18:21.239Z,16.17
2022-10-22T18:22:24.310Z,16.22
2022-10-22T18:26:28.160Z,16.25
2022-10-22T18:30:32.471Z,16.24
2022-10-22T18:34:36.776Z,16.18
2022-10-22T18:38:40.075Z,16.10
2022-10-22T18:42:43.834Z,16.02
2022-10-22T18:46:48.855Z,15.89
2022-10-22T18:51:01.391Z,15.77
2022-10-22T18:55:05.006Z,15.60
2022-10-22T18:59:08.795Z,15.43
2022-10-22T19:03:14.274Z,15.27
2022-10-22T19:11:27.443Z,14.93
2022-10-22T19:15:30.631Z,14.98
2022-10-22T19:19:35.547Z,14.98
2022-10-22T19:23:39.193Z,14.93
2022-10-22T19:27:42.646Z,14.92
2022-10-22T19:31:47.069Z,14.96
2022-10-22T19:35:51.527Z,14.96
2022-10-22T19:39:55.772Z,14.89
2022-10-22T19:44:01.200Z,14.87
2022-10-22T19:48:06.961Z,14.75
2022-10-22T19:52:14.356Z,14.67
2022-10-22T19:56:21.360Z,14.61
2022-10-22T20:00:27.016Z,14.49
2022-10-22T20:04:32.420Z,14.35
2022-10-22T20:08:39.898Z,14.20
2022-10-22T20:12:44.150Z,14.10
2022-10-22T20:16:48.088Z,14.00
2022-10-22T20:20:52.363Z,13.91
2022-10-22T20:24:57.031Z,13.87
2022-10-22T20:29:01.294Z,13.84
2022-10-22T20:33:04.534Z,13.81
2022-10-22T20:37:08.140Z,13.75
2022-10-22T20:41:15.927Z,13.72
2022-10-22T20:45:19.343Z,13.69
2022-10-22T20:49:22.812Z,13.67
2022-10-22T20:53:26.351Z,13.65
2022-10-22T20:57:31.491Z,13.59
2022-10-22T21:01:37.787Z,13.51
2022-10-22T21:05:41.359Z,13.44
2022-10-22T21:09:44.911Z,13.39
2022-10-22T21:13:49.281Z,13.35
2022-10-22T21:17:52.310Z,13.32
2022-10-22T21:21:55.648Z,13.28
2022-10-22T21:25:59.892Z,13.28
2022-10-22T21:30:04.973Z,13.27
2022-10-22T21:34:08.333Z,13.32
2022-10-22T21:38:11.856Z,13.36
2022-10-22T21:42:16.654Z,13.33
2022-10-22T21:46:23.311Z,13.37
2022-10-22T21:50:26.549Z,13.38
2022-10-22T21:54:29.963Z,13.44
2022-10-22T21:58:34.924Z,13.44
2022-10-22T22:02:39.608Z,13.48
2022-10-22T22:06:42.749Z,13.54
2022-10-22T22:10:46.439Z,13.58
2022-10-22T22:14:50.101Z,13.58
2022-10-22T22:18:55.197Z,13.57
2022-10-22T22:22:58.182Z,13.57
2022-10-22T22:27:01.836Z,13.60
2022-10-22T22:31:14.647Z,13.47
2022-10-22T22:35:20.098Z,13.65
2022-10-22T22:39:25.250Z,13.65
2022-10-22T22:43:28.738Z,13.62
2022-10-22T22:47:31.929Z,13.55
2022-10-22T22:51:36.995Z,13.54
2022-10-22T22:55:40.383Z,13.47
2022-10-22T22:59:44.128Z,13.40
2022-10-22T23:03:49.428Z,13.33
2022-10-22T23:07:54.269Z,13.23
2022-10-22T23:11:57.320Z,13.14
2022-10-22T23:16:01.090Z,13.04
2022-10-22T23:20:05.001Z,12.92
2022-10-22T23:24:13.512Z,12.82
2022-10-22T23:28:16.451Z,12.73
2022-10-22T23:32:19.944Z,12.62
2022-10-22T23:36:23.382Z,12.55
2022-10-22T23:40:28.095Z,12.45
2022-10-22T23:44:31.050Z,12.35
2022-10-22T23:48:34.889Z,12.27
2022-10-22T23:52:37.971Z,12.21
2022-10-22T23:56:42.863Z,12.17
